createdAt,value
2023-03-08T00:00:01.261Z,50.36
2023-03-08T00:05:21.294Z,50.29
2023-03-08T00:10:29.163Z,50.29
2023-03-08T00:15:48.090Z,50.39
2023-03-08T00:21:26.620Z,50.55
2023-03-08T00:44:23.716Z,50.67
2023-03-08T00:49:57.672Z,50.90
2023-03-08T00:55:16.036Z,50.94
2023-03-08T01:00:21.296Z,51.05
2023-03-08T01:05:28.924Z,51.06
2023-03-08T01:10:32.575Z,51.32
2023-03-08T01:15:39.150Z,51.57
2023-03-08T01:20:44.870Z,51.62
2023-03-08T01:26:06.608Z,51.78
2023-03-08T02:45:59.696Z,52.48
2023-03-08T02:52:03.738Z,52.37
2023-03-08T04:02:04.940Z,52.25
2023-03-08T04:07:38.548Z,52.20
2023-03-08T04:13:01.193Z,52.14
2023-03-08T04:18:19.182Z,52.11
2023-03-08T04:56:03.976Z,51.71
2023-03-08T05:01:36.335Z,51.58
2023-03-08T05:07:09.815Z,51.55
2023-03-08T05:12:21.141Z,51.42
2023-03-08T05:17:37.917Z,51.57
2023-03-08T05:23:15.967Z,51.95
2023-03-08T05:29:16.005Z,52.01
2023-03-08T05:34:25.666Z,52.04
2023-03-08T05:46:07.060Z,52.03
2023-03-08T05:51:47.481Z,51.91
2023-03-08T05:57:07.402Z,51.73
2023-03-08T06:02:41.993Z,51.33
2023-03-08T06:07:45.601Z,51.38
2023-03-08T06:12:50.783Z,51.15
2023-03-08T06:19:03.424Z,51.02
2023-03-08T06:24:30.650Z,50.89
2023-03-08T06:31:01.040Z,50.86
2023-03-08T06:36:23.896Z,50.82
2023-03-08T06:41:39.217Z,50.29
2023-03-08T06:47:17.877Z,50.21
2023-03-08T06:52:38.076Z,49.98
2023-03-08T06:58:23.269Z,50.16
2023-03-08T07:03:40.956Z,50.19
2023-03-08T07:08:49.207Z,50.03
2023-03-08T07:13:59.867Z,49.93
2023-03-08T07:25:21.796Z,49.63
2023-03-08T07:30:30.039Z,49.06
2023-03-08T07:35:33.141Z,49.11
2023-03-08T07:41:30.564Z,49.02
2023-03-08T07:46:52.129Z,49.11
2023-03-08T07:52:18.477Z,49.02
2023-03-08T07:58:42.268Z,48.59
2023-03-08T08:03:19.027Z,48.49
2023-03-08T08:08:36.517Z,48.43
2023-03-08T08:14:08.234Z,48.31
2023-03-08T08:19:23.234Z,48.01
2023-03-08T08:24:32.261Z,47.87
2023-03-08T08:29:52.418Z,48.29
2023-03-08T08:35:00.537Z,48.30
2023-03-08T08:52:11.819Z,48.15
2023-03-08T08:57:29.996Z,47.71
2023-03-08T09:02:48.735Z,47.75
2023-03-08T09:08:19.459Z,47.28
2023-03-08T09:14:20.706Z,47.18
2023-03-08T09:30:55.989Z,45.88
2023-03-08T09:36:02.048Z,45.64
2023-03-08T09:47:27.516Z,45.23
2023-03-08T09:52:39.167Z,44.07
2023-03-08T10:02:05.029Z,44.12
2023-03-08T10:07:24.459Z,43.70
2023-03-08T10:12:38.597Z,43.22
2023-03-08T10:17:44.867Z,43.11
2023-03-08T10:22:56.503Z,43.55
2023-03-08T10:28:03.676Z,43.49
2023-03-08T10:33:12.759Z,43.73
2023-03-08T10:38:17.512Z,43.91
2023-03-08T10:43:46.371Z,43.63
2023-03-08T10:48:50.499Z,44.01
2023-03-08T10:54:05.218Z,43.48
2023-03-08T10:59:21.163Z,42.58
2023-03-08T11:04:26.614Z,42.20
2023-03-08T11:09:36.964Z,41.96
2023-03-08T11:14:41.843Z,42.67
2023-03-08T11:20:12.391Z,41.63
2023-03-08T11:25:26.077Z,40.84
2023-03-08T11:30:53.822Z,41.02
2023-03-08T11:36:13.045Z,41.09
2023-03-08T11:41:16.831Z,40.57
2023-03-08T11:46:19.979Z,41.09
2023-03-08T11:51:41.749Z,41.36
2023-03-08T11:56:51.176Z,40.28
2023-03-08T12:02:03.624Z,39.97
2023-03-08T12:07:16.086Z,40.98
2023-03-08T12:12:28.466Z,40.55
2023-03-08T12:17:39.557Z,41.00
2023-03-08T12:22:43.760Z,40.14
2023-03-08T12:27:53.609Z,40.83
2023-03-08T12:32:59.313Z,41.08
2023-03-08T12:38:33.056Z,41.11
2023-03-08T12:43:38.401Z,40.90
2023-03-08T12:48:47.367Z,40.90
2023-03-08T12:53:51.746Z,40.50
2023-03-08T12:58:57.867Z,40.73
2023-03-08T13:04:08.162Z,40.68
2023-03-08T13:09:34.357Z,40.91
2023-03-08T13:21:31.568Z,39.50
2023-03-08T13:26:51.110Z,38.56
2023-03-08T13:31:56.222Z,39.23
2023-03-08T13:36:59.869Z,37.93
2023-03-08T13:42:08.728Z,38.60
2023-03-08T13:47:30.645Z,39.09
2023-03-08T13:52:39.454Z,38.23
2023-03-08T13:57:43.117Z,38.89
2023-03-08T14:02:47.747Z,38.16
2023-03-08T14:08:10.064Z,38.45
2023-03-08T14:13:24.950Z,38.25
2023-03-08T14:18:33.824Z,37.75
2023-03-08T14:23:45.707Z,36.70
2023-03-08T14:28:49.400Z,37.22
2023-03-08T14:34:22.094Z,37.28
2023-03-08T14:39:31.104Z,37.64
2023-03-08T14:44:35.382Z,37.88
2023-03-08T14:49:38.941Z,37.92
2023-03-08T14:54:42.665Z,37.69
2023-03-08T14:59:47.573Z,38.19
2023-03-08T15:04:51.524Z,38.18
2023-03-08T15:09:54.865Z,38.16
2023-03-08T15:14:58.307Z,38.34
2023-03-08T15:20:02.030Z,38.33
2023-03-08T15:25:13.930Z,38.64
2023-03-08T15:30:23.607Z,38.86
2023-03-08T15:35:27.552Z,38.81
2023-03-08T15:40:33.525Z,39.00
2023-03-08T15:45:37.404Z,40.21
2023-03-08T15:50:41.258Z,40.69
2023-03-08T15:55:44.732Z,42.01
2023-03-08T16:00:49.416Z,41.95
2023-03-08T16:05:56.220Z,42.50
2023-03-08T16:11:04.464Z,43.28
2023-03-08T16:16:08.529Z,44.05
2023-03-08T16:21:12.955Z,44.51
2023-03-08T16:26:17.729Z,45.12
2023-03-08T16:31:22.529Z,46.34
2023-03-08T16:36:26.147Z,46.11
2023-03-08T16:41:30.245Z,47.03
2023-03-08T16:46:34.043Z,46.83
2023-03-08T16:51:38.496Z,47.93
2023-03-08T16:56:43.441Z,49.64
2023-03-08T17:01:47.745Z,49.04
2023-03-08T17:06:51.077Z,49.86
2023-03-08T17:11:54.404Z,50.66
2023-03-08T17:16:59.937Z,52.24
2023-03-08T17:22:03.841Z,52.45
2023-03-08T17:27:07.313Z,52.56
2023-03-08T17:32:10.723Z,52.44
2023-03-08T17:37:16.005Z,53.25
2023-03-08T17:42:19.464Z,53.76
2023-03-08T17:47:22.902Z,55.29
2023-03-08T17:52:26.600Z,56.07
2023-03-08T17:57:30.281Z,56.55
2023-03-08T18:02:34.719Z,57.33
2023-03-08T18:07:41.308Z,58.79
2023-03-08T18:12:45.125Z,59.25
2023-03-08T18:17:48.784Z,60.48
2023-03-08T18:22:53.130Z,59.83
2023-03-08T18:27:56.586Z,60.21
2023-03-08T18:33:00.128Z,60.76
2023-03-08T18:38:04.280Z,61.10
2023-03-08T18:43:07.778Z,61.36
2023-03-08T18:48:11.133Z,61.34
2023-03-08T18:53:15.882Z,69.00
2023-03-08T18:58:18.966Z,66.32
2023-03-08T19:03:22.099Z,54.47
2023-03-08T19:08:29.133Z,53.29
2023-03-08T19:13:32.685Z,54.41
2023-03-08T19:18:35.789Z,55.63
2023-03-08T19:23:39.134Z,56.74
2023-03-08T19:28:42.459Z,57.02
2023-03-08T19:33:50.013Z,57.61
2023-03-08T19:38:57.019Z,58.57
2023-03-08T19:44:01.260Z,59.05
2023-03-08T19:49:06.673Z,59.35
2023-03-08T19:54:10.019Z,60.27
2023-03-08T19:59:13.498Z,60.37
2023-03-08T20:04:16.854Z,60.64
2023-03-08T20:09:24.165Z,61.00
2023-03-08T20:14:28.247Z,61.35
2023-03-08T20:19:34.131Z,61.77
2023-03-08T20:24:37.985Z,61.89
2023-03-08T20:29:41.355Z,61.90
2023-03-08T20:34:44.937Z,68.52
2023-03-08T20:39:52.882Z,64.31
2023-03-08T20:44:56.257Z,53.32
2023-03-08T20:50:00.168Z,52.54
2023-03-08T20:55:03.741Z,53.92
2023-03-08T21:00:09.592Z,55.67
2023-03-08T21:05:12.830Z,56.01
2023-03-08T21:10:16.664Z,55.39
2023-03-08T21:15:20.075Z,56.87
2023-03-08T21:20:23.645Z,57.93
2023-03-08T21:25:27.244Z,58.84
2023-03-08T21:30:31.054Z,59.57
2023-03-08T21:35:41.561Z,60.40
2023-03-08T21:40:44.964Z,60.79
2023-03-08T21:45:48.489Z,61.09
2023-03-08T21:50:51.982Z,61.47
2023-03-08T21:55:55.513Z,61.70
2023-03-08T22:01:07.713Z,61.98
2023-03-08T22:06:13.275Z,70.23
2023-03-08T22:11:20.749Z,63.57
2023-03-08T22:16:25.616Z,52.67
2023-03-08T22:21:29.652Z,50.83
2023-03-08T22:26:33.022Z,51.39
2023-03-08T22:31:36.607Z,52.12
2023-03-08T22:36:40.027Z,53.08
2023-03-08T22:41:43.772Z,53.94
2023-03-08T22:46:48.075Z,54.89
2023-03-08T22:51:52.746Z,56.33
2023-03-08T22:56:56.673Z,57.49
2023-03-08T23:02:00.168Z,58.43
2023-03-08T23:07:03.864Z,59.37
2023-03-08T23:12:07.502Z,60.29
2023-03-08T23:17:10.953Z,60.96
2023-03-08T23:22:14.734Z,69.32
2023-03-08T23:27:18.300Z,64.66
2023-03-08T23:32:21.669Z,53.97
2023-03-08T23:37:25.680Z,53.38
2023-03-08T23:42:29.239Z,54.78
2023-03-08T23:47:33.722Z,56.01
2023-03-08T23:52:37.243Z,57.21
2023-03-08T23:57:40.662Z,58.43
